Time;durP1;ratioP1;P1;durP2;ratioP2;P2;SDS_P1;SDS_P2;PMS_P1;PMS_P2;Temp;Humidity;BMP_temperature;BMP_pressure;BME280_temperature;BME280_humidity;BME280_pressure;Samples;Min_cycle;Max_cycle;Signal;HPM_P1;HPM_P2
2023/05/15 00:01:13;;;;;;;20.93;7.80;;;;;;;16.70;67.32;100325.64;5092245;55;1139131;-76
2023/05/15 00:06:19;;;;;;;19.53;9.33;;;;;;;16.47;67.49;100316.88;5042811;56;1140836;-76
2023/05/15 00:11:26;;;;;;;24.27;9.50;;;;;;;16.33;68.09;100307.33;5095874;56;1140823;-76
2023/05/15 00:16:32;;;;;;;16.07;8.33;;;;;;;16.10;69.16;100306.55;5017206;57;1140839;-77
2023/05/15 00:21:38;;;;;;;15.27;8.10;;;;;;;15.96;69.69;100297.81;5101543;55;1140833;-77
2023/05/15 00:26:44;;;;;;;11.87;7.20;;;;;;;15.87;70.33;100282.77;5016927;57;1141034;-78
2023/05/15 00:31:49;;;;;;;12.57;7.43;;;;;;;15.77;70.75;100288.70;5036947;57;1141044;-76
2023/05/15 00:36:55;;;;;;;16.82;7.95;;;;;;;15.91;71.85;100271.27;5017209;57;1140987;-77
2023/05/15 00:42:02;;;;;;;8.88;6.17;;;;;;;15.90;71.81;100261.59;5027705;55;1141062;-77
2023/05/15 00:47:10;;;;;;;10.17;6.30;;;;;;;15.87;72.24;100258.77;5077877;56;1138801;-75
2023/05/15 00:52:16;;;;;;;8.97;5.50;;;;;;;15.93;72.44;100250.61;5099864;56;1140696;-76
2023/05/15 00:57:24;;;;;;;8.77;5.00;;;;;;;15.94;71.49;100244.28;4959324;57;1138645;-75
2023/05/15 01:02:30;;;;;;;9.83;4.90;;;;;;;15.97;70.87;100242.63;4900129;58;1139017;-75
2023/05/15 01:07:40;;;;;;;7.07;5.10;;;;;;;15.97;70.48;100237.30;4855873;57;1138813;-76
2023/05/15 01:12:47;;;;;;;11.57;5.13;;;;;;;15.99;70.27;100242.81;4854790;58;1138998;-75
2023/05/15 01:17:53;;;;;;;7.03;5.00;;;;;;;16.03;69.68;100247.34;5020872;56;1141173;-74
2023/05/15 01:23:18;;;;;;;7.67;4.57;;;;;;;16.07;69.47;100250.84;5122208;56;1138955;-76
2023/05/15 01:28:33;;;;;;;4.50;4.07;;;;;;;16.06;69.77;100256.33;5104061;55;1138864;-74
2023/05/15 01:33:43;;;;;;;6.17;4.97;;;;;;;15.96;70.83;100267.63;5065443;56;1138628;-75
2023/05/15 01:38:54;;;;;;;5.67;4.85;;;;;;;15.88;71.55;100265.78;5072361;56;1140215;-75
2023/05/15 01:44:22;;;;;;;8.08;4.55;;;;;;;15.74;71.64;100254.34;5089110;56;1138988;-75
2023/05/15 01:49:28;;;;;;;9.27;5.37;;;;;;;15.67;71.68;100251.98;5080749;56;1138864;-75
2023/05/15 01:54:35;;;;;;;8.83;4.67;;;;;;;15.68;71.35;100237.17;5078577;55;1138700;-75
2023/05/15 01:59:43;;;;;;;8.10;4.97;;;;;;;15.72;70.53;100233.70;5027238;56;1138943;-76
2023/05/15 02:04:50;;;;;;;12.55;5.22;;;;;;;15.78;69.88;100235.20;5043859;55;1138738;-77
2023/05/15 02:09:58;;;;;;;8.85;5.12;;;;;;;15.83;70.21;100237.41;5058221;56;1140987;-75
2023/05/15 02:15:05;;;;;;;7.73;5.23;;;;;;;15.85;70.19;100225.25;5025891;55;1138857;-75
2023/05/15 02:20:10;;;;;;;13.57;5.30;;;;;;;15.86;70.04;100211.76;5037961;56;1139075;-75
2023/05/15 02:25:16;;;;;;;7.73;4.67;;;;;;;15.92;70.26;100199.59;5017966;56;1140870;-75
2023/05/15 02:30:44;;;;;;;8.90;4.60;;;;;;;15.95;70.20;100197.45;5017922;56;1138724;-75
2023/05/15 02:36:11;;;;;;;7.28;4.78;;;;;;;15.92;70.28;100183.09;5018782;56;1145761;-75
2023/05/15 02:41:18;;;;;;;8.87;5.40;;;;;;;15.83;70.48;100166.73;5085915;55;1138680;-75
2023/05/15 02:46:24;;;;;;;9.03;4.37;;;;;;;15.78;71.18;100143.71;5079358;56;1138706;-76
2023/05/15 02:51:30;;;;;;;11.67;5.37;;;;;;;15.75;71.82;100138.69;5034723;55;1138720;-76
2023/05/15 02:56:36;;;;;;;14.93;5.43;;;;;;;15.61;72.14;100123.31;5091154;56;1140916;-75
2023/05/15 03:01:42;;;;;;;15.47;6.10;;;;;;;15.62;72.87;100116.98;5077822;55;1141174;-75
2023/05/15 03:06:48;;;;;;;12.57;5.37;;;;;;;15.63;72.96;100106.17;5108157;55;1140878;-76
2023/05/15 03:11:53;;;;;;;10.70;6.17;;;;;;;15.64;73.37;100097.67;5076186;56;1140880;-75
2023/05/15 03:16:59;;;;;;;7.67;5.58;;;;;;;15.65;73.85;100088.19;5099387;55;1141175;-75
2023/05/15 03:22:06;;;;;;;15.93;7.10;;;;;;;15.54;73.84;100089.79;5073289;55;1138727;-75
2023/05/15 03:27:11;;;;;;;9.50;4.90;;;;;;;15.48;74.66;100083.27;5072430;55;1140959;-75
2023/05/15 03:32:17;;;;;;;15.97;6.73;;;;;;;15.47;74.96;100080.25;5083065;55;1138982;-75
2023/05/15 03:37:23;;;;;;;13.00;7.03;;;;;;;15.41;75.20;100093.41;5099076;55;1140863;-75
2023/05/15 03:42:29;;;;;;;11.17;6.50;;;;;;;15.28;75.24;100089.83;5112034;55;1140820;-75
2023/05/15 03:47:34;;;;;;;11.60;5.97;;;;;;;15.22;77.00;100101.14;5098027;56;1140862;-75
2023/05/15 03:52:40;;;;;;;10.47;5.73;;;;;;;15.14;77.39;100093.92;5073281;56;1140810;-75
2023/05/15 03:57:46;;;;;;;11.18;6.35;;;;;;;15.11;77.95;100080.95;5077516;55;1140881;-75
2023/05/15 04:02:51;;;;;;;18.23;6.00;;;;;;;15.07;78.43;100062.28;5083758;54;1140882;-76
2023/05/15 04:07:57;;;;;;;13.83;7.72;;;;;;;15.08;78.73;100056.45;5095921;55;1141183;-76
2023/05/15 04:13:03;;;;;;;12.93;6.40;;;;;;;15.08;79.32;100067.95;5074818;55;1140895;-77
2023/05/15 04:18:08;;;;;;;22.22;6.58;;;;;;;15.04;81.56;100045.28;5085898;55;1141085;-76
2023/05/15 04:23:14;;;;;;;10.43;6.73;;;;;;;15.00;82.02;100049.74;5028797;55;1140977;-74
2023/05/15 04:28:20;;;;;;;13.30;6.83;;;;;;;15.02;89.51;100094.36;5122382;55;1140712;-76
2023/05/15 04:33:26;;;;;;;10.70;6.73;;;;;;;14.80;89.57;100087.76;5098131;55;1140885;-76
2023/05/15 04:38:32;;;;;;;9.27;7.17;;;;;;;14.70;88.32;100065.71;5075534;56;1140847;-75
2023/05/15 04:43:37;;;;;;;10.20;7.47;;;;;;;14.71;89.41;100078.03;4958008;57;1138868;-76
2023/05/15 04:48:43;;;;;;;16.50;7.73;;;;;;;14.67;90.99;100072.67;5030950;56;1140975;-75
2023/05/15 04:53:48;;;;;;;8.33;6.30;;;;;;;14.69;90.14;100060.87;5074153;55;1140852;-74
2023/05/15 04:58:54;;;;;;;9.83;7.33;;;;;;;14.77;90.45;100050.80;5071466;55;1138742;-75
2023/05/15 05:03:59;;;;;;;19.60;8.37;;;;;;;14.87;91.70;100052.84;5025222;56;1142767;-75
2023/05/15 05:09:05;;;;;;;9.28;6.72;;;;;;;14.91;91.43;100040.89;5011530;55;1141144;-75
2023/05/15 05:14:15;;;;;;;6.93;6.20;;;;;;;14.87;91.48;100039.52;5057184;56;1138735;-76
2023/05/15 05:19:21;;;;;;;8.03;6.80;;;;;;;14.76;92.04;100041.14;5089595;55;1138798;-74
2023/05/15 05:24:27;;;;;;;12.80;7.40;;;;;;;14.77;93.25;100042.80;5088436;56;1138748;-75
2023/05/15 05:29:33;;;;;;;11.43;7.60;;;;;;;14.80;93.60;100040.33;5021793;56;1140933;-76
2023/05/15 05:34:38;;;;;;;14.37;8.13;;;;;;;14.80;94.33;100024.36;5014073;56;1140829;-75
2023/05/15 05:39:45;;;;;;;16.63;8.13;;;;;;;14.84;94.77;100015.03;5014788;55;1141129;-75
2023/05/15 05:44:51;;;;;;;15.90;7.87;;;;;;;14.83;95.43;100017.36;5033717;56;1140880;-79
2023/05/15 05:49:56;;;;;;;18.73;7.40;;;;;;;14.78;95.59;100015.20;5067111;56;1141080;-78
2023/05/15 05:55:02;;;;;;;13.35;8.43;;;;;;;14.74;96.29;100016.00;5087293;56;1140810;-77
2023/05/15 06:00:09;;;;;;;12.55;8.30;;;;;;;14.63;96.90;100006.96;5128716;55;1141072;-76
2023/05/15 06:05:14;;;;;;;11.67;8.67;;;;;;;14.67;97.54;99998.14;5146575;55;1140838;-77
2023/05/15 06:10:20;;;;;;;17.47;9.33;;;;;;;14.75;98.75;99991.05;5081988;56;1138738;-78
2023/05/15 06:15:26;;;;;;;18.17;8.57;;;;;;;14.78;99.39;99976.10;5102249;56;1138784;-78
2023/05/15 06:20:32;;;;;;;12.37;8.90;;;;;;;14.82;99.18;99985.91;5046993;56;1139035;-76
2023/05/15 06:25:37;;;;;;;12.13;8.47;;;;;;;14.86;100.00;99979.78;5063212;56;1138711;-75
2023/05/15 06:30:43;;;;;;;15.80;9.73;;;;;;;14.92;100.00;99975.16;5026304;56;1140982;-76
2023/05/15 06:35:48;;;;;;;11.33;8.50;;;;;;;14.91;100.00;99958.34;5121651;56;1140787;-75
2023/05/15 06:40:54;;;;;;;10.47;7.93;;;;;;;14.87;100.00;99947.67;5100944;55;1140759;-75
2023/05/15 06:46:00;;;;;;;14.93;9.10;;;;;;;14.82;100.00;99943.84;5104222;55;1140907;-77
2023/05/15 06:51:07;;;;;;;14.25;9.50;;;;;;;14.83;100.00;99942.32;5197235;55;1140967;-75
2023/05/15 06:56:12;;;;;;;17.93;11.80;;;;;;;14.83;100.00;99941.48;5188065;55;1141006;-74
2023/05/15 07:01:18;;;;;;;15.07;9.90;;;;;;;14.71;100.00;99942.27;5187664;55;1143069;-77
2023/05/15 07:06:24;;;;;;;12.17;8.90;;;;;;;14.67;100.00;99929.77;5155901;55;1140886;-76
2023/05/15 07:11:32;;;;;;;15.50;9.60;;;;;;;14.64;100.00;99922.63;5010766;57;1140925;-77
2023/05/15 07:16:37;;;;;;;13.00;9.03;;;;;;;14.67;100.00;99920.95;5100396;56;1141296;-77
2023/05/15 07:21:43;;;;;;;14.97;9.90;;;;;;;14.73;100.00;99899.03;5101398;55;1141132;-75
2023/05/15 07:26:49;;;;;;;38.33;24.50;;;;;;;14.77;100.00;99898.56;5080622;56;1140915;-78
2023/05/15 07:31:55;;;;;;;13.50;9.67;;;;;;;14.77;100.00;99899.05;5112437;54;1142974;-76
2023/05/15 07:37:01;;;;;;;17.10;10.30;;;;;;;14.74;100.00;99894.05;5123087;55;1140867;-78
2023/05/15 07:42:07;;;;;;;19.00;11.10;;;;;;;14.76;100.00;99889.40;5142002;54;1142834;-77
2023/05/15 07:47:13;;;;;;;20.02;14.87;;;;;;;14.81;100.00;99884.44;5107096;55;1142909;-75
2023/05/15 07:52:18;;;;;;;18.97;12.30;;;;;;;14.82;100.00;99874.09;5037469;55;1142941;-78
2023/05/15 07:57:25;;;;;;;19.23;11.13;;;;;;;14.79;100.00;99873.11;5056930;55;1143122;-75
2023/05/15 08:02:30;;;;;;;17.90;13.73;;;;;;;14.75;100.00;99863.28;5076280;55;1143151;-75
2023/05/15 08:07:36;;;;;;;15.00;10.53;;;;;;;14.76;100.00;99862.28;5121600;55;1143158;-77
2023/05/15 08:12:45;;;;;;;23.10;9.30;;;;;;;14.73;100.00;99852.45;5020711;56;1143174;-77
2023/05/15 08:17:49;;;;;;;13.50;9.77;;;;;;;14.74;100.00;99852.29;5034898;57;1140819;-77
2023/05/15 08:22:56;;;;;;;16.38;10.72;;;;;;;14.75;100.00;99843.31;5105800;56;1149572;-77
2023/05/15 08:28:04;;;;;;;12.90;10.80;;;;;;;14.75;100.00;99837.98;5076056;56;1142938;-77
2023/05/15 08:33:10;;;;;;;10.90;9.03;;;;;;;14.74;100.00;99828.83;5087832;55;1142902;-76
2023/05/15 08:38:15;;;;;;;13.27;8.07;;;;;;;14.70;100.00;99823.48;5044816;56;1140917;-74
2023/05/15 08:43:23;;;;;;;16.13;10.47;;;;;;;14.69;100.00;99815.16;5044976;56;1140894;-75
2023/05/15 08:48:30;;;;;;;14.33;10.83;;;;;;;14.73;100.00;99805.38;5028964;56;1142955;-78
2023/05/15 08:53:36;;;;;;;14.03;9.90;;;;;;;14.75;100.00;99802.55;4962943;57;1143076;-76
2023/05/15 08:58:42;;;;;;;13.80;7.53;;;;;;;14.75;100.00;99803.38;4963481;56;1140913;-76
2023/05/15 09:03:48;;;;;;;12.27;7.50;;;;;;;14.70;100.00;99800.86;5042996;56;1140936;-77
2023/05/15 09:08:56;;;;;;;11.43;7.40;;;;;;;14.68;100.00;99782.89;5118398;56;1141086;-78
2023/05/15 09:14:02;;;;;;;11.38;6.92;;;;;;;14.71;100.00;99781.23;5098924;56;1140964;-74
2023/05/15 09:19:09;;;;;;;6.47;5.87;;;;;;;14.67;100.00;99778.56;5099851;55;1144653;-77
2023/05/15 09:24:27;;;;;;;8.35;5.35;;;;;;;14.60;100.00;99777.06;5118988;56;1138893;-75
2023/05/15 09:29:35;;;;;;;6.90;4.77;;;;;;;14.50;100.00;99773.72;5101540;56;1138925;-75
2023/05/15 09:34:43;;;;;;;14.33;4.43;;;;;;;14.42;100.00;99771.02;5102362;56;1139087;-75
2023/05/15 09:39:49;;;;;;;5.92;4.85;;;;;;;14.33;100.00;99767.48;5102069;56;1140835;-78
2023/05/15 09:44:54;;;;;;;11.57;5.43;;;;;;;14.32;100.00;99766.31;5121988;56;1138718;-77
2023/05/15 09:50:00;;;;;;;6.80;4.83;;;;;;;14.32;100.00;99757.00;5040150;56;1141196;-76
2023/05/15 09:55:07;;;;;;;5.87;5.12;;;;;;;14.30;100.00;99756.33;5018117;55;1138973;-77
2023/05/15 10:00:13;;;;;;;11.80;5.35;;;;;;;14.34;100.00;99752.36;5038669;55;1138732;-75
2023/05/15 10:05:19;;;;;;;5.73;4.00;;;;;;;14.28;100.00;99751.17;5119133;55;1140924;-75
2023/05/15 10:10:26;;;;;;;5.43;4.93;;;;;;;14.30;100.00;99751.84;5142699;55;1138814;-77
2023/05/15 10:15:32;;;;;;;4.95;4.50;;;;;;;14.29;100.00;99748.84;5177007;55;1138968;-77
2023/05/15 10:20:39;;;;;;;5.93;3.90;;;;;;;14.26;100.00;99739.85;5135890;55;1138923;-76
2023/05/15 10:25:55;;;;;;;16.07;6.97;;;;;;;14.20;100.00;99739.68;5036665;57;1138775;-75
2023/05/15 10:31:02;;;;;;;26.03;17.77;;;;;;;14.14;100.00;99738.98;4959252;57;1141034;-74
2023/05/15 10:36:09;;;;;;;95.90;61.85;;;;;;;14.16;100.00;99740.49;5041136;57;1143313;-75
2023/05/15 10:41:17;;;;;;;26.57;21.27;;;;;;;14.19;100.00;99734.02;5021399;57;1143254;-77
2023/05/15 10:46:23;;;;;;;9.83;8.80;;;;;;;14.24;100.00;99736.52;5021645;56;1143001;-77
2023/05/15 10:51:31;;;;;;;12.20;8.93;;;;;;;14.27;100.00;99726.89;5128128;55;1138998;-77
2023/05/15 10:56:42;;;;;;;7.33;6.63;;;;;;;14.21;100.00;99726.20;5127877;55;1140968;-74
2023/05/15 11:01:48;;;;;;;8.13;7.37;;;;;;;14.25;100.00;99717.41;5088370;55;1138933;-77
2023/05/15 11:06:58;;;;;;;9.38;6.58;;;;;;;14.25;100.00;99709.42;5088718;56;1138821;-75
2023/05/15 11:12:06;;;;;;;7.90;7.10;;;;;;;14.24;100.00;99700.61;5116489;56;1138837;-78
2023/05/15 11:17:16;;;;;;;14.00;9.50;;;;;;;14.20;100.00;99703.78;5137166;55;1138710;-74
2023/05/15 11:22:35;;;;;;;7.47;6.60;;;;;;;14.19;100.00;99691.48;5025754;56;1140750;-76
2023/05/15 11:27:46;;;;;;;10.23;6.93;;;;;;;14.25;100.00;99696.13;5086137;55;1139283;-77
2023/05/15 11:33:02;;;;;;;10.03;7.83;;;;;;;14.23;100.00;99689.63;5039168;55;1141068;-74
2023/05/15 11:38:15;;;;;;;15.47;9.73;;;;;;;14.26;100.00;99686.66;5037950;56;1151488;-75
2023/05/15 11:43:28;;;;;;;16.13;12.63;;;;;;;14.29;100.00;99678.85;5057539;56;1140841;-76
2023/05/15 11:48:40;;;;;;;9.83;8.10;;;;;;;14.24;100.00;99666.03;5074862;55;1143003;-76
2023/05/15 11:53:50;;;;;;;8.83;7.90;;;;;;;14.32;100.00;99660.75;5096132;54;1138835;-75
2023/05/15 11:59:01;;;;;;;6.83;6.13;;;;;;;14.33;100.00;99653.11;5079650;55;1141670;-75
2023/05/15 12:04:18;;;;;;;10.85;8.88;;;;;;;14.31;100.00;99653.77;5049280;56;1138802;-75
2023/05/15 12:09:26;;;;;;;8.17;7.37;;;;;;;14.28;100.00;99653.25;5048178;55;1141036;-74
2023/05/15 12:14:32;;;;;;;12.77;8.43;;;;;;;14.36;100.00;99646.10;5122478;55;1138901;-75
2023/05/15 12:19:40;;;;;;;13.03;8.90;;;;;;;14.35;100.00;99643.63;5070063;55;1140808;-76
2023/05/15 12:24:45;;;;;;;13.87;12.47;;;;;;;14.40;100.00;99642.65;5037516;56;1140872;-75
2023/05/15 12:29:51;;;;;;;10.25;8.30;;;;;;;14.45;100.00;99638.17;5037534;56;1143137;-75
2023/05/15 12:34:57;;;;;;;8.30;7.50;;;;;;;14.46;100.00;99630.53;5057488;56;1140940;-76
2023/05/15 12:40:10;;;;;;;14.57;11.93;;;;;;;14.51;100.00;99628.22;5038202;56;1139043;-74
2023/05/15 12:45:20;;;;;;;9.43;8.43;;;;;;;14.51;100.00;99625.55;5037674;56;1143305;-74
2023/05/15 12:50:29;;;;;;;8.23;7.43;;;;;;;14.50;100.00;99613.25;5039794;55;1138909;-74
2023/05/15 12:55:35;;;;;;;8.63;7.20;;;;;;;14.50;100.00;99618.56;5016190;56;1138705;-74
2023/05/15 13:00:45;;;;;;;13.83;8.23;;;;;;;14.45;100.00;99605.75;5010607;57;1138673;-74
2023/05/15 13:05:52;;;;;;;8.10;7.07;;;;;;;14.42;100.00;99594.11;5035763;55;1141074;-75
2023/05/15 13:10:59;;;;;;;21.70;11.13;;;;;;;14.50;100.00;99594.12;5098876;55;1138818;-74
2023/05/15 13:16:05;;;;;;;10.53;8.73;;;;;;;14.43;100.00;99584.63;5098425;56;1143060;-76
2023/05/15 13:21:11;;;;;;;8.13;7.33;;;;;;;14.44;100.00;99578.81;5012525;57;1141023;-77
2023/05/15 13:26:17;;;;;;;12.60;9.00;;;;;;;14.53;100.00;99570.31;5035175;57;1138724;-77
2023/05/15 13:31:23;;;;;;;7.77;7.03;;;;;;;14.60;100.00;99569.99;5015399;57;1141022;-74
2023/05/15 13:36:28;;;;;;;7.17;6.43;;;;;;;14.58;100.00;99568.83;5016987;57;1138887;-74
2023/05/15 13:41:35;;;;;;;7.40;6.70;;;;;;;14.66;100.00;99571.99;5037866;57;1139140;-74
2023/05/15 13:46:40;;;;;;;11.37;7.27;;;;;;;14.72;100.00;99565.48;5051470;56;1138807;-76
2023/05/15 13:51:46;;;;;;;10.57;9.53;;;;;;;14.76;100.00;99556.66;5094221;55;1140885;-74
2023/05/15 13:56:51;;;;;;;20.40;11.63;;;;;;;14.77;100.00;99550.34;5071335;56;1141182;-77
2023/05/15 14:01:57;;;;;;;15.23;9.67;;;;;;;14.76;100.00;99542.03;5082179;56;1142903;-74
2023/05/15 14:07:03;;;;;;;20.52;9.90;;;;;;;14.80;100.00;99546.02;5074294;55;1140874;-76
2023/05/15 14:12:10;;;;;;;15.80;8.88;;;;;;;14.83;100.00;99541.66;5082834;56;1140942;-74
2023/05/15 14:17:17;;;;;;;8.60;7.45;;;;;;;14.89;100.00;99544.16;5017532;57;1141016;-74
2023/05/15 14:22:23;;;;;;;19.93;14.33;;;;;;;14.89;100.00;99541.48;5053807;56;1138820;-74
2023/05/15 14:27:29;;;;;;;8.63;7.83;;;;;;;14.77;100.00;99533.88;5071090;56;1143136;-75
2023/05/15 14:32:34;;;;;;;6.57;6.07;;;;;;;14.73;100.00;99535.70;5091430;56;1138750;-75
2023/05/15 14:37:41;;;;;;;7.43;6.73;;;;;;;14.62;100.00;99527.58;5071517;56;1138790;-76
2023/05/15 14:42:47;;;;;;;11.60;8.67;;;;;;;14.49;100.00;99523.78;5071670;56;1138866;-75
2023/05/15 14:47:52;;;;;;;13.88;10.60;;;;;;;14.36;100.00;99526.39;5071628;56;1140997;-74
2023/05/15 14:52:58;;;;;;;7.33;6.43;;;;;;;14.28;100.00;99526.91;5090840;57;1143039;-74
2023/05/15 14:58:04;;;;;;;7.90;7.07;;;;;;;14.25;100.00;99530.73;5099174;55;1138876;-76
2023/05/15 15:03:10;;;;;;;12.45;7.53;;;;;;;14.31;100.00;99526.09;5149179;55;1138733;-75
2023/05/15 15:08:15;;;;;;;15.93;9.03;;;;;;;14.28;100.00;99525.09;5175623;55;1140793;-75
2023/05/15 15:13:21;;;;;;;10.65;6.83;;;;;;;14.27;100.00;99523.42;5094457;55;1140814;-76
2023/05/15 15:18:26;;;;;;;7.07;6.00;;;;;;;14.21;100.00;99522.74;5127971;55;1141087;-73
2023/05/15 15:23:32;;;;;;;7.07;6.37;;;;;;;14.15;100.00;99512.80;5114328;55;1138754;-74
2023/05/15 15:28:37;;;;;;;10.53;7.70;;;;;;;14.08;100.00;99513.94;5142146;55;1138751;-74
2023/05/15 15:33:43;;;;;;;8.73;6.50;;;;;;;14.08;100.00;99514.44;5156697;55;1140810;-74
2023/05/15 15:38:49;;;;;;;10.90;7.70;;;;;;;14.11;100.00;99514.11;5147983;55;1138927;-75
2023/05/15 15:43:55;;;;;;;13.57;9.23;;;;;;;14.09;100.00;99510.78;5100398;55;1140927;-75
2023/05/15 15:49:00;;;;;;;7.90;6.23;;;;;;;14.08;100.00;99512.61;5073771;56;1140951;-74
2023/05/15 15:54:06;;;;;;;9.73;5.90;;;;;;;14.06;100.00;99513.77;5099364;55;1138749;-75
2023/05/15 15:59:12;;;;;;;9.40;6.60;;;;;;;14.02;100.00;99500.50;5119255;56;1138847;-74
2023/05/15 16:04:17;;;;;;;7.70;6.85;;;;;;;13.91;100.00;99502.96;5044212;55;1138982;-75
2023/05/15 16:09:23;;;;;;;9.77;7.53;;;;;;;13.87;100.00;99496.34;5043920;56;1138736;-76
2023/05/15 16:14:30;;;;;;;7.97;7.17;;;;;;;13.94;100.00;99497.82;5118873;56;1138761;-75
2023/05/15 16:19:35;;;;;;;9.17;8.23;;;;;;;13.92;100.00;99494.48;5039964;56;1138847;-74
2023/05/15 16:24:41;;;;;;;11.13;6.87;;;;;;;13.93;100.00;99497.48;5030168;55;1138812;-74
2023/05/15 16:29:46;;;;;;;8.93;8.03;;;;;;;13.96;100.00;99493.17;5015027;57;1140864;-74
2023/05/15 16:34:52;;;;;;;9.37;6.90;;;;;;;13.99;100.00;99484.88;5034912;55;1138899;-75
2023/05/15 16:39:58;;;;;;;13.30;7.20;;;;;;;13.98;100.00;99489.85;5052468;56;1138923;-75
2023/05/15 16:45:04;;;;;;;10.07;8.50;;;;;;;14.01;100.00;99481.55;5098973;56;1140892;-75
2023/05/15 16:50:10;;;;;;;19.80;11.87;;;;;;;14.02;100.00;99484.55;5128597;55;1140930;-75
2023/05/15 16:55:18;;;;;;;17.30;10.90;;;;;;;13.99;100.00;99488.36;5125406;56;1143081;-75
2023/05/15 17:00:23;;;;;;;30.80;16.85;;;;;;;13.98;100.00;99488.52;5115836;55;1143146;-75
2023/05/15 17:05:29;;;;;;;18.57;11.30;;;;;;;13.96;100.00;99486.53;5141717;55;1143057;-75
2023/05/15 17:10:35;;;;;;;25.07;13.63;;;;;;;13.95;100.00;99491.51;5096399;55;1143107;-75
2023/05/15 17:15:41;;;;;;;25.43;15.20;;;;;;;13.96;100.00;99495.33;5101240;56;1142972;-75
2023/05/15 17:20:48;;;;;;;27.73;14.07;;;;;;;13.93;100.00;99496.16;5095021;56;1142935;-75
2023/05/15 17:25:53;;;;;;;15.67;11.73;;;;;;;13.91;100.00;99499.47;5119259;56;1143000;-75
2023/05/15 17:30:59;;;;;;;9.53;8.57;;;;;;;13.82;100.00;99504.46;5048313;56;1143073;-75
2023/05/15 17:36:05;;;;;;;10.77;8.17;;;;;;;13.80;100.00;99505.12;5064724;55;1138739;-75
2023/05/15 17:41:10;;;;;;;15.00;8.20;;;;;;;13.70;100.00;99511.92;5030784;56;1140836;-75
2023/05/15 17:46:16;;;;;;;10.10;8.43;;;;;;;13.63;100.00;99516.21;5030016;56;1141049;-75
2023/05/15 17:51:22;;;;;;;12.23;8.20;;;;;;;13.60;100.00;99529.81;5069908;56;1141007;-75
2023/05/15 17:56:28;;;;;;;10.67;9.23;;;;;;;13.57;100.00;99527.51;5119526;55;1140921;-75
2023/05/15 18:01:33;;;;;;;8.87;7.50;;;;;;;13.52;100.00;99530.64;5099272;56;1140811;-74
2023/05/15 18:06:39;;;;;;;10.07;8.23;;;;;;;13.46;100.00;99534.42;5099796;55;1138822;-67
2023/05/15 18:11:45;;;;;;;9.33;8.30;;;;;;;13.31;100.00;99533.72;5090476;55;1140886;-66
2023/05/15 18:16:51;;;;;;;9.37;7.67;;;;;;;13.31;100.00;99533.72;5120234;56;1138705;-64
2023/05/15 18:21:58;;;;;;;7.30;6.60;;;;;;;13.28;100.00;99543.85;5042815;56;1138914;-65
2023/05/15 18:27:04;;;;;;;15.67;8.43;;;;;;;13.23;100.00;99550.13;5080081;55;1138958;-67
2023/05/15 18:32:10;;;;;;;8.57;7.67;;;;;;;13.22;100.00;99554.61;5099624;56;1145155;-66
2023/05/15 18:37:15;;;;;;;8.00;6.55;;;;;;;13.21;100.00;99566.70;5060264;56;1138723;-67
2023/05/15 18:42:21;;;;;;;8.83;7.67;;;;;;;13.21;100.00;99568.04;5100586;55;1138689;-64
2023/05/15 18:47:26;;;;;;;11.27;6.40;;;;;;;13.17;100.00;99577.30;5156198;55;1138953;-67
2023/05/15 18:52:32;;;;;;;10.47;7.43;;;;;;;13.13;100.00;99580.77;5134137;55;1140904;-67
2023/05/15 18:57:38;;;;;;;8.60;7.07;;;;;;;13.07;100.00;99581.37;5125346;55;1140942;-66
2023/05/15 19:02:44;;;;;;;10.37;7.70;;;;;;;13.00;100.00;99587.80;5101455;55;1138956;-66
2023/05/15 19:07:50;;;;;;;12.43;8.03;;;;;;;12.98;100.00;99593.79;5092874;56;1140906;-66
2023/05/15 19:12:57;;;;;;;9.73;8.03;;;;;;;12.94;100.00;99599.55;5067864;55;1140982;-67
2023/05/15 19:18:02;;;;;;;14.10;7.80;;;;;;;12.88;100.00;99600.17;5028629;56;1138943;-69
2023/05/15 19:23:09;;;;;;;9.60;7.47;;;;;;;12.86;100.00;99607.45;5035646;56;1141001;-66
2023/05/15 19:28:15;;;;;;;12.15;7.70;;;;;;;12.85;100.00;99605.28;5015046;56;1138882;-65
2023/05/15 19:33:20;;;;;;;7.45;6.83;;;;;;;12.81;100.00;99599.14;5082607;55;1141087;-68
2023/05/15 19:38:26;;;;;;;8.13;7.33;;;;;;;12.78;100.00;99604.75;5102000;55;1138654;-65
2023/05/15 19:43:34;;;;;;;9.57;7.53;;;;;;;12.78;100.00;99609.56;5041338;56;1138721;-64
2023/05/15 19:48:43;;;;;;;11.23;7.63;;;;;;;12.74;100.00;99609.53;5057299;55;1138962;-67
2023/05/15 19:53:49;;;;;;;8.08;7.28;;;;;;;12.71;100.00;99609.00;5071796;55;1140908;-64
2023/05/15 19:58:55;;;;;;;8.70;6.00;;;;;;;12.70;100.00;99618.78;5042174;56;1138853;-67
2023/05/15 20:04:00;;;;;;;11.30;7.03;;;;;;;12.66;100.00;99622.26;5039336;55;1138833;-69
2023/05/15 20:09:06;;;;;;;7.37;6.27;;;;;;;12.63;100.00;99619.91;5093805;55;1141130;-74
2023/05/15 20:14:14;;;;;;;6.83;6.13;;;;;;;12.63;100.00;99633.17;5037770;55;1138875;-75
2023/05/15 20:19:23;;;;;;;7.27;6.40;;;;;;;12.62;100.00;99626.20;5018723;55;1138862;-74
2023/05/15 20:24:29;;;;;;;6.17;5.57;;;;;;;12.61;100.00;99625.02;5017639;55;1138699;-73
2023/05/15 20:29:34;;;;;;;9.20;6.00;;;;;;;12.57;100.00;99627.14;5037602;55;1138852;-74
2023/05/15 20:34:44;;;;;;;6.50;5.80;;;;;;;12.59;100.00;99628.31;5025327;55;1138897;-74
2023/05/15 20:39:47;;;;;;;6.40;4.63;;;;;;;12.60;100.00;99633.47;5100439;55;1138834;-74
2023/05/15 20:44:53;;;;;;;6.62;5.67;;;;;;;12.60;100.00;99626.84;5042045;56;1138840;-73
2023/05/15 20:49:58;;;;;;;5.83;5.27;;;;;;;12.60;100.00;99625.52;5036276;56;1138835;-74
2023/05/15 20:55:06;;;;;;;6.43;5.70;;;;;;;12.58;100.00;99629.30;5019506;56;1138976;-73
2023/05/15 21:00:14;;;;;;;4.87;4.47;;;;;;;12.54;100.00;99627.44;5015887;57;1138718;-74
2023/05/15 21:05:20;;;;;;;11.70;5.45;;;;;;;12.49;100.00;99634.20;5182464;55;1138837;-73
2023/05/15 21:10:25;;;;;;;18.87;4.97;;;;;;;12.44;100.00;99639.96;5133857;55;1141075;-75
2023/05/15 21:15:31;;;;;;;5.20;4.70;;;;;;;12.39;100.00;99637.41;5127749;55;1141076;-76
2023/05/15 21:20:37;;;;;;;5.83;5.27;;;;;;;12.39;100.00;99634.27;5119433;56;1138840;-74
2023/05/15 21:25:43;;;;;;;5.60;4.47;;;;;;;12.36;100.00;99631.11;5134636;55;1138767;-74
2023/05/15 21:31:10;;;;;;;4.87;4.40;;;;;;;12.32;100.00;99642.51;5164253;55;1138667;-76
2023/05/15 21:36:16;;;;;;;7.05;4.55;;;;;;;12.28;100.00;99641.97;5067821;56;1138796;-76
2023/05/15 21:41:21;;;;;;;6.28;4.40;;;;;;;12.27;100.00;99640.80;5066193;55;1138768;-75
2023/05/15 21:46:27;;;;;;;4.75;4.28;;;;;;;12.27;100.00;99642.95;5015856;57;1138967;-75
2023/05/15 21:51:33;;;;;;;7.83;4.40;;;;;;;12.30;100.00;99648.45;5007747;57;1138847;-76
2023/05/15 21:56:38;;;;;;;7.47;4.63;;;;;;;12.33;100.00;99652.13;4951512;58;1139018;-75
2023/05/15 22:01:44;;;;;;;8.53;4.40;;;;;;;12.33;100.00;99646.83;5062717;56;1138830;-74
2023/05/15 22:06:50;;;;;;;5.97;4.40;;;;;;;12.33;100.00;99650.31;5070108;56;1138944;-73
2023/05/15 22:11:56;;;;;;;4.23;3.87;;;;;;;12.33;100.00;99646.83;5092254;56;1138845;-75
2023/05/15 22:17:01;;;;;;;7.80;4.00;;;;;;;12.31;100.00;99654.93;5073211;56;1138889;-74
2023/05/15 22:22:07;;;;;;;6.10;4.50;;;;;;;12.32;100.00;99649.14;5072664;56;1138842;-73
2023/05/15 22:27:30;;;;;;;7.60;3.67;;;;;;;12.29;100.00;99657.39;5096543;56;1138841;-76
2023/05/15 22:32:36;;;;;;;4.83;4.40;;;;;;;12.28;100.00;99665.83;5101566;56;1138805;-76
2023/05/15 22:37:59;;;;;;;4.55;4.15;;;;;;;12.27;100.00;99662.84;5101810;56;1138746;-76
2023/05/15 22:43:04;;;;;;;8.77;4.17;;;;;;;12.28;100.00;99659.70;5101767;55;1138647;-75
2023/05/15 22:48:10;;;;;;;6.17;4.13;;;;;;;12.25;100.00;99662.16;5121852;56;1138818;-73
2023/05/15 22:53:16;;;;;;;4.50;3.97;;;;;;;12.22;100.00;99660.31;5075804;55;1138878;-74
2023/05/15 22:58:22;;;;;;;5.97;4.12;;;;;;;12.20;100.00;99664.44;5022551;56;1138950;-74
2023/05/15 23:03:27;;;;;;;6.12;4.45;;;;;;;12.16;100.00;99668.86;5037290;56;1138848;-76